METAR Data
IDs: Format: Raw Decoded Include TAF

Data at: 0154 UTC 29 May 2022

ESOK 290150Z AUTO 01011KT 9999 NCD 07/M02 Q1007